Terminal Aerodrome Forecast
Issued by NWS

Home | Current Version | Previous Version | Text Only | Print | Product List | Glossary On
Versions: 1 2 3 4 5 6 7 8 9 10 11 12 13 14
000
FTAK31 PAJN 230932 AAA
TAFASI
TAF AMD
PASI 230932Z 2310/2406 14014KT 5SM -RA BR BKN025 OVC035
      WS020/14035KT
     FM231500 13020G30KT 4SM RA BR OVC025 WS020/14040KT
     FM232100 14014G22KT 5SM -RA BR BKN020 OVC030
     FM240000 17010KT 5SM -RA BR BKN015 OVC025
     FM240400 18007KT P6SM -SHRA SCT015 OVC025=

USA.gov is the U.S. government's official web portal to all federal, state and local government web resources and services.